Arthur Brusco — WDC3449 — position and weather

sailwx.info

Track history (hours):
 
Tides and Currents Weather Stations Pressure Air Temp Water Temp Dewpoint Dewpoint Depression Visibility Wind Speed Wind Dir Waves Ship Positions

Arthur Brusco

Owner: Brusco Tug & Barge, Inc, Longview, WA. More information available from US FCC via Universal Licensing System and Coast Guard Vessel Documentation Center.

Last reported at 2015-Aug-28 04:34 UTC. Time now 2015-Aug-28 05:16 UTC.
Position N 37°46' W 122°37'.

Length 35 m; draft 3.2 m.

Type: Other ship. MMSI: 271040404.

Date/timePositionNaut miles runAvg speedWind from/ knotsBaromVisibWave heightAir tempDewpointWater temp
2015-Aug-28 04:34N 37°46' W 122°37'6 5.9
2015-Aug-28 03:33N 37°49' W 122°30'5 4.8
2015-Aug-28 02:34N 37°51' W 122°25'5 4.8
2015-Aug-28 01:34N 37°55' W 122°28'3 2.9
2015-Aug-28 00:34N 37°53' W 122°25'7 6.7
2015-Aug-27 23:33N 37°49' W 122°18'0 0.0
2015-Aug-27 22:34N 37°49' W 122°18'0 0.0
2015-Aug-27 21:33N 37°49' W 122°18'0 0.0
2015-Aug-27 20:34N 37°49' W 122°19'2 2.1
2015-Aug-27 19:34N 37°49' W 122°21'7 6.7
2015-Aug-27 18:34N 37°55' W 122°22'0 0.0
2015-Aug-27 17:34N 37°55' W 122°22'0 0.0
2015-Aug-27 16:34N 37°55' W 122°22'0 0.0
2015-Aug-27 15:33N 37°55' W 122°22'1 1.0
2015-Aug-27 14:33N 37°54' W 122°22'0 0.1
2015-Aug-27 13:34N 37°54' W 122°22'3 2.7
2015-Aug-27 12:33N 37°54' W 122°25'5 5.3
2015-Aug-27 11:33N 37°50' W 122°21'7 6.9
2015-Aug-27 10:34N 37°55' W 122°27'1110.6
2015-Aug-27 09:34N 38°03' W 122°18'19 8.8
2015-Aug-27 07:25N 38°03' W 121°54'9 2.3
2015-Aug-27 03:29N 38°03' W 122°05'7 7.9
2015-Aug-27 02:33N 38°04' W 122°14'8 8.5
2015-Aug-27 01:33N 38°00' W 122°24'8 7.6
2015-Aug-27 00:34N 37°53' W 122°25'4 4.0
2015-Aug-26 23:34N 37°50' W 122°21'0 0.0
2015-Aug-26 22:34N 37°50' W 122°21'0 0.1
2015-Aug-26 21:33N 37°50' W 122°21'0 0.4
2015-Aug-26 20:33N 37°49' W 122°21'0 0.4
2015-Aug-26 19:33N 37°50' W 122°21'0 0.0
2015-Aug-26 18:34N 37°50' W 122°21'4 4.3
2015-Aug-26 17:33N 37°48' W 122°17'2 2.1
2015-Aug-26 16:34N 37°46' W 122°15'0 0.0
2015-Aug-26 15:34N 37°46' W 122°15'3 3.4
2015-Aug-26 14:33N 37°48' W 122°19'2 2.5
2015-Aug-26 13:33N 37°49' W 122°21'5 5.5
2015-Aug-26 12:34N 37°53' W 122°25'9 9.2
2015-Aug-26 11:34N 38°02' W 122°22'10 9.9
2015-Aug-26 10:34N 38°02' W 122°09'9 9.4
2015-Aug-26 09:33N 38°03' W 121°57'5 4.7
2015-Aug-26 08:34N 38°04' W 121°51'0 0.0
2015-Aug-26 07:34N 38°04' W 121°51'7 5.7
2015-Aug-26 06:24N 38°04' W 121°60'7 8.6
2015-Aug-26 05:33N 38°02' W 122°09'9 8.8
2015-Aug-26 04:33N 38°03' W 122°20'9 8.9
2015-Aug-26 03:34N 37°56' W 122°27'7 7.2
2015-Aug-26 02:34N 37°50' W 122°21'2 2.3
2015-Aug-26 01:34N 37°49' W 122°19'0 0.0
2015-Aug-26 00:33N 37°49' W 122°19'0 0.0
2015-Aug-25 23:33N 37°49' W 122°19'0 0.0
2015-Aug-25 22:33N 37°49' W 122°19'7 7.2
2015-Aug-25 21:33N 37°54' W 122°26'2 1.9
2015-Aug-25 20:34N 37°55' W 122°27'6 6.1
2015-Aug-25 19:33N 37°49' W 122°25'7 7.0
2015-Aug-25 18:33N 37°47' W 122°34'8 8.1
2015-Aug-25 17:33N 37°43' W 122°43'9 9.0
2015-Aug-25 16:31N 37°38' W 122°52'9 9.0
2015-Aug-25 15:30N 37°33' W 123°02'8 8.7
2015-Aug-25 14:32N 37°35' W 123°13'9 8.6
2015-Aug-25 13:29N 37°37' W 123°23'2 1.5
2015-Aug-25 12:17N 37°38' W 123°25'5 6.6
2015-Aug-25 11:33N 37°38' W 123°19'6 6.5
2015-Aug-25 10:33N 37°37' W 123°11'7 6.5
2015-Aug-25 09:33N 37°36' W 123°03'6 6.4
2015-Aug-25 08:33N 37°39' W 122°55'7 7.1
2015-Aug-25 07:33N 37°42' W 122°48'6 6.4
2015-Aug-25 06:34N 37°45' W 122°40'7 7.3
2015-Aug-25 05:33N 37°48' W 122°32'7 6.9
2015-Aug-25 04:33N 37°52' W 122°25'4 4.2
2015-Aug-25 03:34N 37°56' W 122°28'0 0.3
2015-Aug-25 02:33N 37°56' W 122°28'0 0.0
2015-Aug-25 01:33N 37°56' W 122°28'0 0.0
2015-Aug-25 00:33N 37°56' W 122°28'0 0.0
2015-Aug-24 23:33N 37°56' W 122°28'0 0.0
2015-Aug-24 22:33N 37°56' W 122°28'1 0.8
2015-Aug-24 21:33N 37°55' W 122°27'6 6.1
2015-Aug-24 20:33N 37°49' W 122°26'7 7.0
2015-Aug-24 19:33N 37°47' W 122°35'9 8.6
2015-Aug-24 18:33N 37°43' W 122°44'1010.1
2015-Aug-24 17:33N 37°37' W 122°55'10 9.7
2015-Aug-24 16:33N 37°33' W 123°06'1010.1
2015-Aug-24 15:33N 37°36' W 123°18'9 9.2
2015-Aug-24 14:33N 37°39' W 123°29'8 8.1
2015-Aug-24 13:33N 37°38' W 123°19'8 8.3
2015-Aug-24 12:33N 37°37' W 123°08'8 8.1
2015-Aug-24 11:32N 37°37' W 122°58'11 8.4
2015-Aug-24 10:14N 37°43' W 122°46'6 8.3
2015-Aug-24 09:33N 37°45' W 122°40'9 8.7
2015-Aug-24 08:33N 37°49' W 122°30'6 6.2
2015-Aug-24 07:33N 37°55' W 122°27'0 0.4
2015-Aug-24 06:34N 37°55' W 122°27'6 6.0
2015-Aug-24 05:33N 37°49' W 122°26'7 6.7
2015-Aug-24 04:33N 37°47' W 122°34'8 8.1
2015-Aug-24 03:33N 37°43' W 122°43'9 9.3
2015-Aug-24 02:32N 37°38' W 122°53'9 9.4
2015-Aug-24 01:32N 37°33' W 123°03'11 9.4
2015-Aug-24 00:19N 37°36' W 123°17'7 8.9
2015-Aug-23 23:31N 37°38' W 123°26'2 1.6
2015-Aug-23 22:33N 37°38' W 123°24'8 8.0
2015-Aug-23 21:33N 37°37' W 123°14'8 8.0
2015-Aug-23 20:33N 37°36' W 123°04'7 7.3
2015-Aug-23 19:32N 37°39' W 122°55'8 8.1
2015-Aug-23 18:33N 37°43' W 122°46'8 7.8
2015-Aug-23 17:33N 37°46' W 122°37'8 8.4
2015-Aug-23 16:33N 37°50' W 122°28'6 5.6
2015-Aug-23 15:33N 37°55' W 122°27'0 0.4
2015-Aug-23 14:33N 37°56' W 122°27'6 6.3
2015-Aug-23 13:33N 37°50' W 122°25'9 9.3
2015-Aug-23 12:33N 37°46' W 122°36'11 9.3
2015-Aug-23 11:23N 37°41' W 122°48'7 8.0
2015-Aug-23 10:28N 37°37' W 122°55'8 8.7
2015-Aug-23 09:33N 37°33' W 123°04'8 8.1
2015-Aug-23 08:34N 37°35' W 123°14'10 9.7
2015-Aug-23 07:32N 37°38' W 123°26'1 1.5
2015-Aug-23 06:32N 37°38' W 123°24'7 7.7
2015-Aug-23 05:33N 37°37' W 123°14'8 8.0
2015-Aug-23 04:33N 37°36' W 123°04'8 8.3
2015-Aug-23 03:33N 37°39' W 122°55'12 8.6
2015-Aug-23 02:07N 37°45' W 122°41'5 8.4
2015-Aug-23 01:33N 37°47' W 122°35'7 7.5
2015-Aug-23 00:34N 37°50' W 122°27'6 5.5
2015-Aug-22 23:33N 37°55' W 122°27'0 0.5
2015-Aug-22 22:33N 37°56' W 122°28'0 0.0
2015-Aug-22 21:33N 37°56' W 122°28'0 0.0
2015-Aug-22 20:33N 37°56' W 122°28'1 0.7
2015-Aug-22 19:33N 37°56' W 122°28'1 0.7
2015-Aug-22 18:33N 37°56' W 122°28'3 2.9
2015-Aug-22 17:33N 37°54' W 122°24'2 1.8
2015-Aug-22 16:33N 37°54' W 122°22'0 0.0
2015-Aug-22 15:33N 37°54' W 122°22'0 0.0
2015-Aug-22 14:33N 37°54' W 122°22'5 4.7
2015-Aug-22 13:33N 37°56' W 122°28'4 4.4
2015-Aug-22 12:33N 37°52' W 122°25'4 4.3
2015-Aug-22 11:33N 37°49' W 122°28'9 8.7
2015-Aug-22 10:33N 37°46' W 122°39'9 8.5
2015-Aug-22 09:32N 37°40' W 122°48'9 8.9
2015-Aug-22 08:33N 37°36' W 122°57'8 8.2
2015-Aug-22 07:33N 37°33' W 123°07'3 0.6
2015-Aug-22 02:25N 37°36' W 123°05'6 6.8
2015-Aug-22 01:31N 37°38' W 122°58'9 7.3
2015-Aug-22 00:21N 37°42' W 122°48'6 7.2
2015-Aug-21 23:32N 37°44' W 122°41'7 6.7
2015-Aug-21 22:33N 37°47' W 122°34'6 5.6
2015-Aug-21 21:33N 37°50' W 122°28'5 4.7
2015-Aug-21 20:33N 37°54' W 122°27'1 1.0
2015-Aug-21 19:33N 37°55' W 122°28'6 6.2
2015-Aug-21 18:33N 37°49' W 122°26'8 7.7
2015-Aug-21 17:33N 37°47' W 122°35'8 7.9
2015-Aug-21 16:30N 37°42' W 122°44'10 8.6
2015-Aug-21 15:19N 37°37' W 122°55'7 8.3
2015-Aug-21 14:27N 37°33' W 123°02'8 8.2
2015-Aug-21 13:30N 37°35' W 123°12'14 6.9
2015-Aug-21 11:30N 37°39' W 123°29'6 6.1
2015-Aug-21 10:28N 37°38' W 123°21'6 6.4
2015-Aug-21 09:27N 37°37' W 123°13'6 6.3
2015-Aug-21 08:32N 37°36' W 123°05'6 6.1
2015-Aug-21 07:28N 37°38' W 122°58'7 6.6
2015-Aug-21 06:28N 37°41' W 122°50'7 6.7
2015-Aug-21 05:27N 37°44' W 122°43'6 7.0
2015-Aug-21 04:33N 37°47' W 122°35'8 8.1
2015-Aug-21 03:33N 37°50' W 122°26'5 5.4
2015-Aug-21 02:33N 37°55' W 122°27'0 0.5
2015-Aug-21 01:33N 37°56' W 122°28'0 0.0
2015-Aug-21 00:33N 37°56' W 122°28'1 0.6
2015-Aug-20 23:33N 37°55' W 122°27'6 6.2
2015-Aug-20 22:33N 37°49' W 122°26'10 9.7
2015-Aug-20 21:33N 37°46' W 122°38'10 9.3
2015-Aug-20 20:29N 37°40' W 122°48'1010.0
2015-Aug-20 19:32N 37°35' W 122°58'13 9.2
2015-Aug-20 18:05N 37°35' W 123°15'810.0
2015-Aug-20 17:18N 37°38' W 123°24'7 3.9
2015-Aug-20 15:33N 37°37' W 123°16'9 8.8
2015-Aug-20 14:32N 37°36' W 123°04'19 8.7
2015-Aug-20 12:19N 37°45' W 122°43'6 8.0
2015-Aug-20 11:33N 37°47' W 122°35'7 7.1
2015-Aug-20 10:33N 37°50' W 122°27'5 5.3
2015-Aug-20 09:33N 37°55' W 122°27'0 0.2
2015-Aug-20 08:33N 37°55' W 122°27'5 5.1
2015-Aug-20 07:33N 37°51' W 122°24'8 7.7
2015-Aug-20 06:33N 37°47' W 122°33'9 8.4
2015-Aug-20 05:31N 37°43' W 122°43'9 9.4
2015-Aug-20 04:33N 37°38' W 122°52'10 9.9
2015-Aug-20 03:33N 37°33' W 123°03'12 9.7
2015-Aug-20 02:21N 37°36' W 123°17'8 9.6
2015-Aug-20 01:33N 37°38' W 123°26'3 3.0
2015-Aug-20 00:32N 37°38' W 123°23'8 8.1
2015-Aug-19 23:33N 37°37' W 123°13'8 8.2
2015-Aug-19 22:33N 37°36' W 123°02'8 8.1
2015-Aug-19 21:31N 37°40' W 122°53'8 8.0
2015-Aug-19 20:30N 37°44' W 122°44'7 7.6
2015-Aug-19 19:33N 37°47' W 122°35'7 6.8
2015-Aug-19 18:33N 37°50' W 122°28'6 5.7
2015-Aug-19 17:33N 37°55' W 122°27'0 0.3
2015-Aug-19 16:33N 37°55' W 122°27'6 6.0
2015-Aug-19 15:33N 37°49' W 122°26'7 7.0
2015-Aug-19 14:33N 37°47' W 122°34'8 7.5
2015-Aug-19 13:31N 37°43' W 122°43'9 8.7
2015-Aug-19 12:33N 37°38' W 122°52'9 8.7
2015-Aug-19 11:33N 37°34' W 123°01'8 8.3
2015-Aug-19 10:33N 37°35' W 123°11'9 8.5
2015-Aug-19 09:33N 37°37' W 123°22'6 6.1
2015-Aug-19 08:33N 37°39' W 123°29'5 5.4
2015-Aug-19 07:33N 37°38' W 123°22'6 6.2
2015-Aug-19 06:33N 37°37' W 123°15'7 6.6
2015-Aug-19 05:33N 37°37' W 123°06'6 6.3
2015-Aug-19 04:33N 37°37' W 122°58'7 6.6
2015-Aug-19 03:33N 37°41' W 122°51'9 6.7
2015-Aug-19 02:09N 37°45' W 122°41'4 6.8
2015-Aug-19 01:32N 37°47' W 122°36'8 7.9
2015-Aug-19 00:33N 37°50' W 122°27'5 4.8
2015-Aug-18 23:33N 37°54' W 122°27'2 1.5
2015-Aug-18 22:33N 37°56' W 122°28'4 4.1
2015-Aug-18 21:33N 37°52' W 122°25'7 6.8
2015-Aug-18 20:33N 37°48' W 122°31'9 9.5
2015-Aug-18 19:33N 37°44' W 122°42'9 9.2
2015-Aug-18 18:33N 37°38' W 122°52'10 9.8
2015-Aug-18 17:33N 37°33' W 123°02'10 9.6
2015-Aug-18 16:33N 37°35' W 123°14'10 9.9
2015-Aug-18 15:33N 37°38' W 123°26'2 2.1
2015-Aug-18 14:33N 37°38' W 123°23'8 7.5
2015-Aug-18 13:33N 37°37' W 123°14'7 7.4
2015-Aug-18 12:33N 37°36' W 123°04'7 7.1
2015-Aug-18 11:32N 37°38' W 122°56'8 7.1
2015-Aug-18 10:26N 37°43' W 122°47'6 6.9
2015-Aug-18 09:31N 37°45' W 122°40'7 6.7
2015-Aug-18 08:31N 37°48' W 122°32'5 5.4
2015-Aug-18 07:33N 37°50' W 122°26'6 5.5
2015-Aug-18 06:33N 37°55' W 122°27'1 0.5
2015-Aug-18 05:33N 37°56' W 122°28'  
Track history (hours):
 
Tides and Currents Weather Stations Pressure Air Temp Water Temp Dewpoint Dewpoint Depression Visibility Wind Speed Wind Dir Waves Ship Positions

Arthur Brusco

Owner: Brusco Tug & Barge, Inc, Longview, WA. More information available from US FCC via Universal Licensing System and Coast Guard Vessel Documentation Center.

Last reported at 2015-Aug-28 04:34 UTC. Time now 2015-Aug-28 05:16 UTC.
Position N 37°46' W 122°37'.

Length 35 m; draft 3.2 m.

Type: Other ship. MMSI: 271040404.

Date/timePositionNaut miles runAvg speedWind from/ knotsBaromVisibWave heightAir tempDewpointWater temp
2015-Aug-28 04:34N 37°46' W 122°37'6 5.9
2015-Aug-28 03:33N 37°49' W 122°30'5 4.8
2015-Aug-28 02:34N 37°51' W 122°25'5 4.8
2015-Aug-28 01:34N 37°55' W 122°28'3 2.9
2015-Aug-28 00:34N 37°53' W 122°25'7 6.7
2015-Aug-27 23:33N 37°49' W 122°18'0 0.0
2015-Aug-27 22:34N 37°49' W 122°18'0 0.0
2015-Aug-27 21:33N 37°49' W 122°18'0 0.0
2015-Aug-27 20:34N 37°49' W 122°19'2 2.1
2015-Aug-27 19:34N 37°49' W 122°21'7 6.7
2015-Aug-27 18:34N 37°55' W 122°22'0 0.0
2015-Aug-27 17:34N 37°55' W 122°22'0 0.0
2015-Aug-27 16:34N 37°55' W 122°22'0 0.0
2015-Aug-27 15:33N 37°55' W 122°22'1 1.0
2015-Aug-27 14:33N 37°54' W 122°22'0 0.1
2015-Aug-27 13:34N 37°54' W 122°22'3 2.7
2015-Aug-27 12:33N 37°54' W 122°25'5 5.3
2015-Aug-27 11:33N 37°50' W 122°21'7 6.9
2015-Aug-27 10:34N 37°55' W 122°27'1110.6
2015-Aug-27 09:34N 38°03' W 122°18'19 8.8
2015-Aug-27 07:25N 38°03' W 121°54'9 2.3
2015-Aug-27 03:29N 38°03' W 122°05'7 7.9
2015-Aug-27 02:33N 38°04' W 122°14'8 8.5
2015-Aug-27 01:33N 38°00' W 122°24'8 7.6
2015-Aug-27 00:34N 37°53' W 122°25'4 4.0
2015-Aug-26 23:34N 37°50' W 122°21'0 0.0
2015-Aug-26 22:34N 37°50' W 122°21'0 0.1
2015-Aug-26 21:33N 37°50' W 122°21'0 0.4
2015-Aug-26 20:33N 37°49' W 122°21'0 0.4
2015-Aug-26 19:33N 37°50' W 122°21'0 0.0
2015-Aug-26 18:34N 37°50' W 122°21'4 4.3
2015-Aug-26 17:33N 37°48' W 122°17'2 2.1
2015-Aug-26 16:34N 37°46' W 122°15'0 0.0
2015-Aug-26 15:34N 37°46' W 122°15'3 3.4
2015-Aug-26 14:33N 37°48' W 122°19'2 2.5
2015-Aug-26 13:33N 37°49' W 122°21'5 5.5
2015-Aug-26 12:34N 37°53' W 122°25'9 9.2
2015-Aug-26 11:34N 38°02' W 122°22'10 9.9
2015-Aug-26 10:34N 38°02' W 122°09'9 9.4
2015-Aug-26 09:33N 38°03' W 121°57'5 4.7
2015-Aug-26 08:34N 38°04' W 121°51'0 0.0
2015-Aug-26 07:34N 38°04' W 121°51'7 5.7
2015-Aug-26 06:24N 38°04' W 121°60'7 8.6
2015-Aug-26 05:33N 38°02' W 122°09'9 8.8
2015-Aug-26 04:33N 38°03' W 122°20'9 8.9
2015-Aug-26 03:34N 37°56' W 122°27'7 7.2
2015-Aug-26 02:34N 37°50' W 122°21'2 2.3
2015-Aug-26 01:34N 37°49' W 122°19'0 0.0
2015-Aug-26 00:33N 37°49' W 122°19'0 0.0
2015-Aug-25 23:33N 37°49' W 122°19'0 0.0
2015-Aug-25 22:33N 37°49' W 122°19'7 7.2
2015-Aug-25 21:33N 37°54' W 122°26'2 1.9
2015-Aug-25 20:34N 37°55' W 122°27'6 6.1
2015-Aug-25 19:33N 37°49' W 122°25'7 7.0
2015-Aug-25 18:33N 37°47' W 122°34'8 8.1
2015-Aug-25 17:33N 37°43' W 122°43'9 9.0
2015-Aug-25 16:31N 37°38' W 122°52'9 9.0
2015-Aug-25 15:30N 37°33' W 123°02'8 8.7
2015-Aug-25 14:32N 37°35' W 123°13'9 8.6
2015-Aug-25 13:29N 37°37' W 123°23'2 1.5
2015-Aug-25 12:17N 37°38' W 123°25'5 6.6
2015-Aug-25 11:33N 37°38' W 123°19'6 6.5
2015-Aug-25 10:33N 37°37' W 123°11'7 6.5
2015-Aug-25 09:33N 37°36' W 123°03'6 6.4
2015-Aug-25 08:33N 37°39' W 122°55'7 7.1
2015-Aug-25 07:33N 37°42' W 122°48'6 6.4
2015-Aug-25 06:34N 37°45' W 122°40'7 7.3
2015-Aug-25 05:33N 37°48' W 122°32'7 6.9
2015-Aug-25 04:33N 37°52' W 122°25'4 4.2
2015-Aug-25 03:34N 37°56' W 122°28'0 0.3
2015-Aug-25 02:33N 37°56' W 122°28'0 0.0
2015-Aug-25 01:33N 37°56' W 122°28'0 0.0
2015-Aug-25 00:33N 37°56' W 122°28'0 0.0
2015-Aug-24 23:33N 37°56' W 122°28'0 0.0
2015-Aug-24 22:33N 37°56' W 122°28'1 0.8
2015-Aug-24 21:33N 37°55' W 122°27'6 6.1
2015-Aug-24 20:33N 37°49' W 122°26'7 7.0
2015-Aug-24 19:33N 37°47' W 122°35'9 8.6
2015-Aug-24 18:33N 37°43' W 122°44'1010.1
2015-Aug-24 17:33N 37°37' W 122°55'10 9.7
2015-Aug-24 16:33N 37°33' W 123°06'1010.1
2015-Aug-24 15:33N 37°36' W 123°18'9 9.2
2015-Aug-24 14:33N 37°39' W 123°29'8 8.1
2015-Aug-24 13:33N 37°38' W 123°19'8 8.3
2015-Aug-24 12:33N 37°37' W 123°08'8 8.1
2015-Aug-24 11:32N 37°37' W 122°58'11 8.4
2015-Aug-24 10:14N 37°43' W 122°46'6 8.3
2015-Aug-24 09:33N 37°45' W 122°40'9 8.7
2015-Aug-24 08:33N 37°49' W 122°30'6 6.2
2015-Aug-24 07:33N 37°55' W 122°27'0 0.4
2015-Aug-24 06:34N 37°55' W 122°27'6 6.0
2015-Aug-24 05:33N 37°49' W 122°26'7 6.7
2015-Aug-24 04:33N 37°47' W 122°34'8 8.1
2015-Aug-24 03:33N 37°43' W 122°43'9 9.3
2015-Aug-24 02:32N 37°38' W 122°53'9 9.4
2015-Aug-24 01:32N 37°33' W 123°03'11 9.4
2015-Aug-24 00:19N 37°36' W 123°17'7 8.9
2015-Aug-23 23:31N 37°38' W 123°26'2 1.6
2015-Aug-23 22:33N 37°38' W 123°24'8 8.0
2015-Aug-23 21:33N 37°37' W 123°14'8 8.0
2015-Aug-23 20:33N 37°36' W 123°04'7 7.3
2015-Aug-23 19:32N 37°39' W 122°55'8 8.1
2015-Aug-23 18:33N 37°43' W 122°46'8 7.8
2015-Aug-23 17:33N 37°46' W 122°37'8 8.4
2015-Aug-23 16:33N 37°50' W 122°28'6 5.6
2015-Aug-23 15:33N 37°55' W 122°27'0 0.4
2015-Aug-23 14:33N 37°56' W 122°27'6 6.3
2015-Aug-23 13:33N 37°50' W 122°25'9 9.3
2015-Aug-23 12:33N 37°46' W 122°36'11 9.3
2015-Aug-23 11:23N 37°41' W 122°48'7 8.0
2015-Aug-23 10:28N 37°37' W 122°55'8 8.7
2015-Aug-23 09:33N 37°33' W 123°04'8 8.1
2015-Aug-23 08:34N 37°35' W 123°14'10 9.7
2015-Aug-23 07:32N 37°38' W 123°26'1 1.5
2015-Aug-23 06:32N 37°38' W 123°24'7 7.7
2015-Aug-23 05:33N 37°37' W 123°14'8 8.0
2015-Aug-23 04:33N 37°36' W 123°04'8 8.3
2015-Aug-23 03:33N 37°39' W 122°55'12 8.6
2015-Aug-23 02:07N 37°45' W 122°41'5 8.4
2015-Aug-23 01:33N 37°47' W 122°35'7 7.5
2015-Aug-23 00:34N 37°50' W 122°27'6 5.5
2015-Aug-22 23:33N 37°55' W 122°27'0 0.5
2015-Aug-22 22:33N 37°56' W 122°28'0 0.0
2015-Aug-22 21:33N 37°56' W 122°28'0 0.0
2015-Aug-22 20:33N 37°56' W 122°28'1 0.7
2015-Aug-22 19:33N 37°56' W 122°28'1 0.7
2015-Aug-22 18:33N 37°56' W 122°28'3 2.9
2015-Aug-22 17:33N 37°54' W 122°24'2 1.8
2015-Aug-22 16:33N 37°54' W 122°22'0 0.0
2015-Aug-22 15:33N 37°54' W 122°22'0 0.0
2015-Aug-22 14:33N 37°54' W 122°22'5 4.7
2015-Aug-22 13:33N 37°56' W 122°28'4 4.4
2015-Aug-22 12:33N 37°52' W 122°25'4 4.3
2015-Aug-22 11:33N 37°49' W 122°28'9 8.7
2015-Aug-22 10:33N 37°46' W 122°39'9 8.5
2015-Aug-22 09:32N 37°40' W 122°48'9 8.9
2015-Aug-22 08:33N 37°36' W 122°57'8 8.2
2015-Aug-22 07:33N 37°33' W 123°07'3 0.6
2015-Aug-22 02:25N 37°36' W 123°05'6 6.8
2015-Aug-22 01:31N 37°38' W 122°58'9 7.3
2015-Aug-22 00:21N 37°42' W 122°48'6 7.2
2015-Aug-21 23:32N 37°44' W 122°41'7 6.7
2015-Aug-21 22:33N 37°47' W 122°34'6 5.6
2015-Aug-21 21:33N 37°50' W 122°28'5 4.7
2015-Aug-21 20:33N 37°54' W 122°27'1 1.0
2015-Aug-21 19:33N 37°55' W 122°28'6 6.2
2015-Aug-21 18:33N 37°49' W 122°26'8 7.7
2015-Aug-21 17:33N 37°47' W 122°35'8 7.9
2015-Aug-21 16:30N 37°42' W 122°44'10 8.6
2015-Aug-21 15:19N 37°37' W 122°55'7 8.3
2015-Aug-21 14:27N 37°33' W 123°02'8 8.2
2015-Aug-21 13:30N 37°35' W 123°12'14 6.9
2015-Aug-21 11:30N 37°39' W 123°29'6 6.1
2015-Aug-21 10:28N 37°38' W 123°21'6 6.4
2015-Aug-21 09:27N 37°37' W 123°13'6 6.3
2015-Aug-21 08:32N 37°36' W 123°05'6 6.1
2015-Aug-21 07:28N 37°38' W 122°58'7 6.6
2015-Aug-21 06:28N 37°41' W 122°50'7 6.7
2015-Aug-21 05:27N 37°44' W 122°43'6 7.0
2015-Aug-21 04:33N 37°47' W 122°35'8 8.1
2015-Aug-21 03:33N 37°50' W 122°26'5 5.4
2015-Aug-21 02:33N 37°55' W 122°27'0 0.5
2015-Aug-21 01:33N 37°56' W 122°28'0 0.0
2015-Aug-21 00:33N 37°56' W 122°28'1 0.6
2015-Aug-20 23:33N 37°55' W 122°27'6 6.2
2015-Aug-20 22:33N 37°49' W 122°26'10 9.7
2015-Aug-20 21:33N 37°46' W 122°38'10 9.3
2015-Aug-20 20:29N 37°40' W 122°48'1010.0
2015-Aug-20 19:32N 37°35' W 122°58'13 9.2
2015-Aug-20 18:05N 37°35' W 123°15'810.0
2015-Aug-20 17:18N 37°38' W 123°24'7 3.9
2015-Aug-20 15:33N 37°37' W 123°16'9 8.8
2015-Aug-20 14:32N 37°36' W 123°04'19 8.7
2015-Aug-20 12:19N 37°45' W 122°43'6 8.0
2015-Aug-20 11:33N 37°47' W 122°35'7 7.1
2015-Aug-20 10:33N 37°50' W 122°27'5 5.3
2015-Aug-20 09:33N 37°55' W 122°27'0 0.2
2015-Aug-20 08:33N 37°55' W 122°27'5 5.1
2015-Aug-20 07:33N 37°51' W 122°24'8 7.7
2015-Aug-20 06:33N 37°47' W 122°33'9 8.4
2015-Aug-20 05:31N 37°43' W 122°43'9 9.4
2015-Aug-20 04:33N 37°38' W 122°52'10 9.9
2015-Aug-20 03:33N 37°33' W 123°03'12 9.7
2015-Aug-20 02:21N 37°36' W 123°17'8 9.6
2015-Aug-20 01:33N 37°38' W 123°26'3 3.0
2015-Aug-20 00:32N 37°38' W 123°23'8 8.1
2015-Aug-19 23:33N 37°37' W 123°13'8 8.2
2015-Aug-19 22:33N 37°36' W 123°02'8 8.1
2015-Aug-19 21:31N 37°40' W 122°53'8 8.0
2015-Aug-19 20:30N 37°44' W 122°44'7 7.6
2015-Aug-19 19:33N 37°47' W 122°35'7 6.8
2015-Aug-19 18:33N 37°50' W 122°28'6 5.7
2015-Aug-19 17:33N 37°55' W 122°27'0 0.3
2015-Aug-19 16:33N 37°55' W 122°27'6 6.0
2015-Aug-19 15:33N 37°49' W 122°26'7 7.0
2015-Aug-19 14:33N 37°47' W 122°34'8 7.5
2015-Aug-19 13:31N 37°43' W 122°43'9 8.7
2015-Aug-19 12:33N 37°38' W 122°52'9 8.7
2015-Aug-19 11:33N 37°34' W 123°01'8 8.3
2015-Aug-19 10:33N 37°35' W 123°11'9 8.5
2015-Aug-19 09:33N 37°37' W 123°22'6 6.1
2015-Aug-19 08:33N 37°39' W 123°29'5 5.4
2015-Aug-19 07:33N 37°38' W 123°22'6 6.2
2015-Aug-19 06:33N 37°37' W 123°15'7 6.6
2015-Aug-19 05:33N 37°37' W 123°06'6 6.3
2015-Aug-19 04:33N 37°37' W 122°58'7 6.6
2015-Aug-19 03:33N 37°41' W 122°51'9 6.7
2015-Aug-19 02:09N 37°45' W 122°41'4 6.8
2015-Aug-19 01:32N 37°47' W 122°36'8 7.9
2015-Aug-19 00:33N 37°50' W 122°27'5 4.8
2015-Aug-18 23:33N 37°54' W 122°27'2 1.5
2015-Aug-18 22:33N 37°56' W 122°28'4 4.1
2015-Aug-18 21:33N 37°52' W 122°25'7 6.8
2015-Aug-18 20:33N 37°48' W 122°31'9 9.5
2015-Aug-18 19:33N 37°44' W 122°42'9 9.2
2015-Aug-18 18:33N 37°38' W 122°52'10 9.8
2015-Aug-18 17:33N 37°33' W 123°02'10 9.6
2015-Aug-18 16:33N 37°35' W 123°14'10 9.9
2015-Aug-18 15:33N 37°38' W 123°26'2 2.1
2015-Aug-18 14:33N 37°38' W 123°23'8 7.5
2015-Aug-18 13:33N 37°37' W 123°14'7 7.4
2015-Aug-18 12:33N 37°36' W 123°04'7 7.1
2015-Aug-18 11:32N 37°38' W 122°56'8 7.1
2015-Aug-18 10:26N 37°43' W 122°47'6 6.9
2015-Aug-18 09:31N 37°45' W 122°40'7 6.7
2015-Aug-18 08:31N 37°48' W 122°32'5 5.4
2015-Aug-18 07:33N 37°50' W 122°26'6 5.5
2015-Aug-18 06:33N 37°55' W 122°27'1 0.5
2015-Aug-18 05:33N 37°56' W 122°28'  

Dump ship's entire track history